Time;durP1;ratioP1;P1;durP2;ratioP2;P2;SDS_P1;SDS_P2;PMS_P1;PMS_P2;Temp;Humidity;BMP_temperature;BMP_pressure;BME280_temperature;BME280_humidity;BME280_pressure;Samples;Min_cycle;Max_cycle;Signal;HPM_P1;HPM_P2
2023/01/21 00:00:52;;;;;;;;;11.40;10.60;;;;;-2.42;82.70;100678.59;5112406;28;8835;-61
2023/01/21 00:03:20;;;;;;;;;12.80;12.00;;;;;-2.45;82.45;100683.00;5112167;28;8851;-61
2023/01/21 00:05:48;;;;;;;;;13.40;10.80;;;;;-2.47;82.58;100687.38;5113389;28;8840;-61
2023/01/21 00:08:16;;;;;;;;;9.80;9.00;;;;;-2.49;83.02;100696.97;5112964;28;8835;-61
2023/01/21 00:10:43;;;;;;;;;8.20;7.00;;;;;-2.52;82.86;100700.47;5112482;28;8820;-61
2023/01/21 00:13:11;;;;;;;;;10.80;10.80;;;;;-2.56;83.21;100710.97;5112796;28;8819;-62
2023/01/21 00:15:39;;;;;;;;;3.00;2.60;;;;;-2.62;82.71;100705.84;5112568;28;8835;-60
2023/01/21 00:18:07;;;;;;;;;5.60;5.60;;;;;-2.66;82.67;100712.00;5113444;28;9557;-61
2023/01/21 00:20:34;;;;;;;;;5.00;3.60;;;;;-2.69;83.29;100705.09;5113403;28;8848;-61
2023/01/21 00:23:02;;;;;;;;;8.60;7.00;;;;;-2.69;83.21;100709.41;5114063;28;8927;-59
2023/01/21 00:25:30;;;;;;;;;5.20;4.40;;;;;-2.67;83.27;100712.84;5114017;28;8831;-61
2023/01/21 00:27:58;;;;;;;;;9.00;9.00;;;;;-2.66;83.22;100718.06;5113410;28;8835;-61
2023/01/21 00:30:26;;;;;;;;;1.00;1.00;;;;;-2.67;82.83;100720.66;5112525;28;8827;-58
2023/01/21 00:32:54;;;;;;;;;9.60;9.60;;;;;-2.70;83.09;100720.72;5113622;28;8850;-60
2023/01/21 00:35:22;;;;;;;;;10.40;10.40;;;;;-2.72;83.61;100728.56;5113190;28;8815;-61
2023/01/21 00:37:49;;;;;;;;;4.00;3.00;;;;;-2.73;83.28;100731.22;5113058;28;8852;-61
2023/01/21 00:40:17;;;;;;;;;8.20;8.20;;;;;-2.75;83.34;100735.56;5114250;28;8827;-60
2023/01/21 00:42:45;;;;;;;;;6.00;5.60;;;;;-2.76;83.54;100731.22;5114080;28;8913;-61
2023/01/21 00:45:13;;;;;;;;;1.80;1.80;;;;;-2.77;82.96;100737.31;5114973;28;8851;-59
2023/01/21 00:47:41;;;;;;;;;6.00;4.80;;;;;-2.79;82.66;100741.72;5115662;28;8836;-61
2023/01/21 00:50:09;;;;;;;;;5.80;5.60;;;;;-2.82;82.84;100742.59;5114660;28;8839;-59
2023/01/21 00:52:37;;;;;;;;;9.80;9.80;;;;;-2.82;83.12;100749.53;5114595;28;8839;-60
2023/01/21 00:55:05;;;;;;;;;13.00;11.20;;;;;-2.84;83.26;100757.41;5114564;28;8832;-60
2023/01/21 00:57:33;;;;;;;;;13.00;11.80;;;;;-2.87;83.33;100760.03;5115259;28;8938;-61
2023/01/21 01:00:00;;;;;;;;;5.60;3.80;;;;;-2.89;83.59;100761.78;5115034;28;8816;-61
2023/01/21 01:02:28;;;;;;;;;0.40;0.40;;;;;-2.90;83.04;100762.69;5118771;28;9145;-61
2023/01/21 01:04:56;;;;;;;;;12.00;12.00;;;;;-2.89;83.55;100777.41;5118445;28;8946;-61
2023/01/21 01:07:24;;;;;;;;;9.80;7.80;;;;;-2.91;82.99;100781.81;5118443;28;8804;-61
2023/01/21 01:09:52;;;;;;;;;6.40;5.60;;;;;-2.90;83.49;100780.03;5117587;28;8863;-61
2023/01/21 01:12:19;;;;;;;;;12.80;12.00;;;;;-2.92;83.05;100785.28;5118457;28;8866;-61
2023/01/21 01:14:47;;;;;;;;;6.00;5.40;;;;;-2.93;83.25;100790.50;5118856;28;8808;-59
2023/01/21 01:17:14;;;;;;;;;12.00;6.00;;;;;-2.95;82.93;100797.50;5118506;28;8854;-61
2023/01/21 01:19:42;;;;;;;;;11.20;8.80;;;;;-2.98;83.01;100787.97;5118579;28;8823;-60
2023/01/21 01:22:10;;;;;;;;;8.40;6.00;;;;;-3.00;83.22;100794.94;5118167;28;8871;-61
2023/01/21 01:24:37;;;;;;;;;13.80;12.40;;;;;-3.00;83.47;100812.28;5118393;28;8842;-61
2023/01/21 01:27:05;;;;;;;;;6.80;6.40;;;;;-3.01;83.36;100810.56;5118008;28;8812;-61
2023/01/21 01:29:33;;;;;;;;;9.00;9.00;;;;;-3.04;83.10;100806.25;5117600;28;8831;-60
2023/01/21 01:32:01;;;;;;;;;8.60;8.60;;;;;-3.05;83.37;100820.16;5118282;28;8830;-59
2023/01/21 01:34:29;;;;;;;;;7.00;6.00;;;;;-3.06;83.37;100833.19;5118224;28;8816;-60
2023/01/21 01:36:56;;;;;;;;;10.40;9.80;;;;;-3.09;83.60;100828.88;5118243;28;8816;-61
2023/01/21 01:39:24;;;;;;;;;6.40;6.40;;;;;-3.10;83.27;100837.56;5118280;28;8850;-60
2023/01/21 01:41:52;;;;;;;;;6.60;6.40;;;;;-3.10;83.12;100839.31;5118332;28;8952;-58
2023/01/21 01:44:20;;;;;;;;;3.80;3.60;;;;;-3.11;83.34;100835.84;5118254;28;8834;-61
2023/01/21 01:46:47;;;;;;;;;8.60;7.80;;;;;-3.12;83.21;100841.94;5117639;28;8974;-61
2023/01/21 01:49:15;;;;;;;;;10.40;9.60;;;;;-3.11;83.29;100848.88;5118495;28;9498;-60
2023/01/21 01:51:43;;;;;;;;;6.60;6.00;;;;;-3.10;83.12;100854.94;5119019;28;8863;-60
2023/01/21 01:54:10;;;;;;;;;3.00;3.00;;;;;-3.11;83.78;100853.22;5118121;28;8804;-60
2023/01/21 01:56:38;;;;;;;;;9.80;9.00;;;;;-3.10;83.31;100865.38;5118169;28;8912;-60
2023/01/21 01:59:06;;;;;;;;;6.40;6.40;;;;;-3.11;83.04;100871.44;5118363;28;8962;-61
2023/01/21 02:01:34;;;;;;;;;8.20;7.00;;;;;-3.13;83.59;100876.66;5117764;28;8820;-61
2023/01/21 02:04:01;;;;;;;;;6.00;6.00;;;;;-3.15;83.08;100888.84;5117929;28;8834;-61
2023/01/21 02:06:29;;;;;;;;;0.80;0.60;;;;;-3.16;83.70;100892.34;5117138;28;8851;-61
2023/01/21 02:08:57;;;;;;;;;10.00;9.80;;;;;-3.17;83.23;100889.72;5117464;28;8840;-60
2023/01/21 02:11:25;;;;;;;;;3.20;3.20;;;;;-3.17;83.14;100884.53;5117691;28;8816;-60
2023/01/21 02:13:54;;;;;;;;;6.40;5.60;;;;;-3.17;83.59;100889.72;5116900;28;8842;-60
2023/01/21 02:16:21;;;;;;;;;12.40;10.40;;;;;-3.19;83.39;100894.94;5117709;28;8828;-59
2023/01/21 02:18:49;;;;;;;;;10.60;9.80;;;;;-3.19;83.26;100902.75;5118021;28;9558;-60
2023/01/21 02:21:17;;;;;;;;;8.60;8.60;;;;;-3.21;83.28;100899.31;5117625;28;8832;-60
2023/01/21 02:23:45;;;;;;;;;7.80;7.40;;;;;-3.26;83.06;100892.44;5116347;28;8828;-59
2023/01/21 02:26:12;;;;;;;;;6.80;6.80;;;;;-3.32;83.13;100903.72;5116540;28;9519;-59
2023/01/21 02:28:40;;;;;;;;;6.40;6.20;;;;;-3.39;83.49;100901.22;5116911;28;8839;-60
2023/01/21 02:31:08;;;;;;;;;7.40;6.80;;;;;-3.46;83.49;100903.00;5116407;28;8820;-60
2023/01/21 02:33:36;;;;;;;;;9.00;9.00;;;;;-3.51;83.28;100909.09;5116818;28;8832;-60
2023/01/21 02:36:04;;;;;;;;;6.00;5.60;;;;;-3.55;83.53;100895.25;5117326;28;8824;-58
2023/01/21 02:38:31;;;;;;;;;10.00;10.00;;;;;-3.56;83.92;100910.91;5117508;28;8824;-59
2023/01/21 02:40:59;;;;;;;;;9.80;9.00;;;;;-3.56;83.58;100908.31;5117377;28;8832;-61
2023/01/21 02:43:27;;;;;;;;;1.00;1.00;;;;;-3.56;83.95;100913.50;5117573;28;8904;-60
2023/01/21 02:45:54;;;;;;;;;6.80;6.00;;;;;-3.57;83.58;100916.97;5117445;28;8823;-60
2023/01/21 02:48:22;;;;;;;;;4.80;4.00;;;;;-3.55;83.54;100917.81;5117141;28;9517;-60
2023/01/21 02:50:50;;;;;;;;;7.00;7.00;;;;;-3.52;83.98;100923.00;5117471;28;8836;-60
2023/01/21 02:53:17;;;;;;;;;2.60;2.60;;;;;-3.48;83.33;100928.16;5117089;28;8859;-60
2023/01/21 02:55:45;;;;;;;;;5.20;4.40;;;;;-3.43;83.56;100930.72;5116820;28;8820;-60
2023/01/21 02:58:13;;;;;;;;;8.20;6.40;;;;;-3.42;83.63;100928.13;5116643;28;8824;-60
2023/01/21 03:00:41;;;;;;;;;6.60;6.60;;;;;-3.41;83.55;100931.59;5116856;28;8828;-60
2023/01/21 03:03:09;;;;;;;;;6.00;6.00;;;;;-3.42;84.10;100935.94;5116905;28;8820;-60
2023/01/21 03:05:36;;;;;;;;;4.00;4.00;;;;;-3.39;83.01;100937.66;5117097;28;8852;-60
2023/01/21 03:08:04;;;;;;;;;8.60;8.60;;;;;-3.42;83.04;100935.94;5116845;28;8834;-58
2023/01/21 03:10:32;;;;;;;;;3.60;3.60;;;;;-3.44;83.52;100944.63;5116913;28;8824;-58
2023/01/21 03:12:59;;;;;;;;;8.00;7.80;;;;;-3.47;83.27;100940.28;5117131;28;8828;-56
2023/01/21 03:18:12;;;;;;;;;7.80;3.80;;;;;-3.50;83.06;100932.53;5117045;28;8828;-58
2023/01/21 03:20:40;;;;;;;;;5.20;4.40;;;;;-3.49;83.76;100938.59;5116526;28;9545;-58
2023/01/21 03:23:08;;;;;;;;;7.60;7.40;;;;;-3.47;83.68;100935.09;5116740;28;8847;-58
2023/01/21 03:25:35;;;;;;;;;7.40;7.00;;;;;-3.45;83.37;100935.97;5116059;28;8851;-57
2023/01/21 03:28:03;;;;;;;;;5.00;5.00;;;;;-3.48;83.83;100929.91;5116713;28;8847;-57
2023/01/21 03:30:30;;;;;;;;;6.20;6.00;;;;;-3.48;83.37;100941.19;5116435;28;8844;-58
2023/01/21 03:32:58;;;;;;;;;11.80;10.20;;;;;-3.50;83.37;100944.66;5116455;28;8827;-57
2023/01/21 03:35:26;;;;;;;;;7.80;7.80;;;;;-3.52;83.39;100939.50;5116416;28;8812;-57
2023/01/21 03:37:53;;;;;;;;;3.00;3.00;;;;;-3.54;83.59;100929.97;5116409;28;8820;-56
2023/01/21 03:40:21;;;;;;;;;9.00;9.00;;;;;-3.55;83.50;100936.03;5116589;28;8847;-58
2023/01/21 03:42:51;;;;;;;;;7.40;7.40;;;;;-3.56;83.61;100940.38;5116391;28;8823;-57
2023/01/21 03:45:19;;;;;;;;;4.60;4.20;;;;;-3.56;83.56;100937.75;5115965;28;8836;-57
2023/01/21 03:47:49;;;;;;;;;6.80;6.20;;;;;-3.56;83.14;100944.72;5116532;28;8888;-57
2023/01/21 03:50:16;;;;;;;;;6.20;5.60;;;;;-3.58;83.26;100949.94;5116012;28;8808;-58
2023/01/21 03:52:45;;;;;;;;;7.00;6.20;;;;;-3.61;83.56;100951.69;5103481;28;9107;-56
2023/01/21 03:55:12;;;;;;;;;6.40;6.20;;;;;-3.64;83.41;100946.53;5095002;28;8860;-58
2023/01/21 03:57:40;;;;;;;;;7.20;7.20;;;;;-3.66;83.81;100954.31;5096253;28;8841;-58
2023/01/21 04:00:08;;;;;;;;;4.40;4.40;;;;;-3.69;83.75;100951.72;5095874;28;8842;-58
2023/01/21 04:02:36;;;;;;;;;9.20;9.20;;;;;-3.72;83.60;100958.72;5095703;28;9568;-56
2023/01/21 04:05:04;;;;;;;;;7.80;7.80;;;;;-3.75;83.94;100950.91;5095450;28;8834;-58
2023/01/21 04:07:31;;;;;;;;;4.00;4.00;;;;;-3.77;83.29;100955.28;5095836;28;8830;-57
2023/01/21 04:09:59;;;;;;;;;8.80;8.80;;;;;-3.77;83.83;100960.47;5096135;28;8876;-58
2023/01/21 04:12:27;;;;;;;;;9.60;8.20;;;;;-3.79;84.07;100957.88;5096043;28;8836;-58
2023/01/21 04:14:55;;;;;;;;;8.00;8.00;;;;;-3.79;83.42;100962.22;5095912;28;8906;-58
2023/01/21 04:17:22;;;;;;;;;3.20;3.20;;;;;-3.81;83.49;100966.53;5096095;28;8810;-61
2023/01/21 04:19:50;;;;;;;;;5.60;4.00;;;;;-3.83;83.75;100968.31;5110098;28;8800;-61
2023/01/21 04:22:19;;;;;;;;;5.20;5.20;;;;;-3.83;83.69;100973.50;5115353;28;8855;-60
2023/01/21 04:24:47;;;;;;;;;7.80;7.00;;;;;-3.81;84.16;100979.56;5095717;28;8822;-60
2023/01/21 04:27:14;;;;;;;;;1.80;1.80;;;;;-3.81;84.06;100980.44;5095705;28;8841;-61
2023/01/21 04:29:42;;;;;;;;;6.20;6.20;;;;;-3.78;83.63;100984.75;5096056;28;9515;-60
2023/01/21 04:32:10;;;;;;;;;7.40;7.40;;;;;-3.78;83.28;100987.34;5095523;28;8854;-60
2023/01/21 04:34:38;;;;;;;;;6.00;4.80;;;;;-3.80;83.76;100984.75;5094469;28;8813;-61
2023/01/21 04:37:05;;;;;;;;;6.40;6.40;;;;;-3.82;83.12;100991.72;5100995;28;8818;-59
2023/01/21 04:39:33;;;;;;;;;4.20;3.80;;;;;-3.84;83.76;100995.19;5100000;28;8836;-61
2023/01/21 04:42:00;;;;;;;;;2.60;2.60;;;;;-3.87;83.57;100993.47;5099527;28;8810;-60
2023/01/21 04:44:28;;;;;;;;;8.60;8.20;;;;;-3.88;83.71;100992.63;5098901;28;8825;-59
2023/01/21 04:46:56;;;;;;;;;4.20;3.80;;;;;-3.91;83.51;100990.88;5099370;28;8837;-61
2023/01/21 04:49:24;;;;;;;;;1.00;1.00;;;;;-3.92;83.98;100991.75;5110262;28;8824;-59
2023/01/21 04:51:51;;;;;;;;;6.80;6.20;;;;;-3.90;83.60;100994.38;5119689;28;8832;-61
2023/01/21 04:54:19;;;;;;;;;9.40;9.40;;;;;-3.89;83.48;100994.34;5101825;28;8815;-59
2023/01/21 04:56:47;;;;;;;;;6.20;5.20;;;;;-3.90;83.85;101002.16;5099274;28;8830;-60
2023/01/21 04:59:15;;;;;;;;;4.80;4.00;;;;;-3.91;83.37;101006.50;5099431;28;8870;-61
2023/01/21 05:01:42;;;;;;;;;6.40;5.60;;;;;-3.90;84.00;101007.38;5098693;28;8810;-61
2023/01/21 05:04:10;;;;;;;;;5.80;4.40;;;;;-3.90;83.50;101010.81;5098085;28;8834;-60
2023/01/21 05:06:38;;;;;;;;;6.80;3.20;;;;;-3.85;83.64;101024.66;5098103;28;8834;-61
2023/01/21 05:09:06;;;;;;;;;3.60;3.20;;;;;-3.86;83.85;101020.34;5098511;28;8817;-60
2023/01/21 05:11:34;;;;;;;;;4.80;4.80;;;;;-3.88;83.47;101022.06;5098990;28;9527;-61
2023/01/21 05:14:02;;;;;;;;;3.40;3.40;;;;;-3.92;83.71;101018.63;5098143;28;8811;-60
2023/01/21 05:16:29;;;;;;;;;3.60;3.00;;;;;-3.96;83.06;101021.22;5098682;28;9538;-60
2023/01/21 05:18:57;;;;;;;;;9.00;9.00;;;;;-4.00;83.29;101021.25;5105539;28;8812;-60
2023/01/21 05:21:25;;;;;;;;;6.80;6.80;;;;;-4.02;83.70;101026.50;5119245;28;8860;-59
2023/01/21 05:23:53;;;;;;;;;4.00;3.40;;;;;-4.01;83.11;101025.63;5105475;28;8837;-61
2023/01/21 05:26:21;;;;;;;;;6.20;6.20;;;;;-4.01;83.65;101025.63;5098304;28;8841;-60
2023/01/21 05:28:48;;;;;;;;;3.00;2.60;;;;;-4.00;83.92;101029.06;5098396;28;8826;-60
2023/01/21 05:31:16;;;;;;;;;7.00;5.60;;;;;-3.98;83.68;101038.59;5098453;28;8838;-60
2023/01/21 05:33:46;;;;;;;;;7.60;7.00;;;;;-3.96;83.59;101036.00;5098374;28;8822;-61
2023/01/21 05:36:13;;;;;;;;;7.00;7.00;;;;;-3.96;83.54;101039.44;5098298;28;8818;-61
2023/01/21 05:38:41;;;;;;;;;4.80;3.60;;;;;-3.96;83.73;101039.44;5098608;28;8841;-61
2023/01/21 05:41:08;;;;;;;;;9.40;9.40;;;;;-3.95;83.82;101042.91;5098538;28;8838;-60
2023/01/21 05:43:36;;;;;;;;;13.40;13.40;;;;;-3.94;83.93;101044.66;5097772;28;8837;-60
2023/01/21 05:46:04;;;;;;;;;7.00;7.00;;;;;-3.96;83.43;101043.78;5097168;28;8864;-61
2023/01/21 05:48:32;;;;;;;;;3.60;3.60;;;;;-3.97;83.32;101049.88;5099766;28;8839;-61
2023/01/21 05:50:59;;;;;;;;;3.00;3.00;;;;;-4.00;83.62;101052.47;5117651;28;8846;-61
2023/01/21 05:53:27;;;;;;;;;9.00;8.60;;;;;-4.03;83.66;101063.72;5109489;28;8848;-61
2023/01/21 05:55:54;;;;;;;;;7.00;7.00;;;;;-4.05;83.71;101070.69;5097672;28;8852;-60
2023/01/21 05:58:22;;;;;;;;;5.20;5.20;;;;;-4.08;83.46;101078.50;5098130;28;9515;-60
2023/01/21 06:00:50;;;;;;;;;8.60;8.60;;;;;-4.10;83.33;101077.63;5098072;28;8822;-60
2023/01/21 06:03:18;;;;;;;;;5.60;5.60;;;;;-4.12;83.33;101087.16;5097744;28;8830;-60
2023/01/21 06:05:45;;;;;;;;;7.80;6.00;;;;;-4.14;83.55;101080.22;5097515;28;8896;-61
2023/01/21 06:08:13;;;;;;;;;3.40;3.20;;;;;-4.16;83.89;101088.06;5097656;28;8861;-60
2023/01/21 06:10:41;;;;;;;;;4.40;4.40;;;;;-4.17;83.68;101095.84;5097014;28;8834;-61
2023/01/21 06:13:09;;;;;;;;;6.80;6.80;;;;;-4.19;83.91;101106.25;5096350;28;8869;-60
2023/01/21 06:15:36;;;;;;;;;1.40;0.40;;;;;-4.20;83.99;101109.72;5097114;28;9706;-61
2023/01/21 06:18:04;;;;;;;;;4.00;4.00;;;;;-4.15;83.77;101114.91;5096823;28;8834;-60
2023/01/21 06:20:31;;;;;;;;;7.40;7.00;;;;;-4.07;83.61;101118.34;5096859;28;8877;-61
2023/01/21 06:22:59;;;;;;;;;0.80;0.80;;;;;-3.97;83.84;101114.88;5096555;28;8818;-61
2023/01/21 06:25:27;;;;;;;;;1.00;0.20;;;;;-3.85;82.81;101120.91;5097164;28;8837;-61
2023/01/21 06:27:55;;;;;;;;;7.00;7.00;;;;;-3.75;82.83;101122.59;5097440;28;8834;-61
2023/01/21 06:30:22;;;;;;;;;4.20;3.60;;;;;-3.67;82.96;101120.84;5097463;28;8834;-61
2023/01/21 06:32:50;;;;;;;;;4.80;4.80;;;;;-3.59;82.84;101116.47;5096979;28;8864;-61
2023/01/21 06:35:19;;;;;;;;;6.20;3.80;;;;;-3.51;83.01;101133.78;5096801;28;8857;-61
2023/01/21 06:37:47;;;;;;;;;3.40;3.00;;;;;-3.41;82.72;101134.63;5096754;28;8817;-60
2023/01/21 06:40:15;;;;;;;;;4.40;4.40;;;;;-3.32;82.94;101134.56;5097302;28;8849;-60
2023/01/21 06:42:43;;;;;;;;;7.40;6.60;;;;;-3.25;82.54;101131.91;5096522;28;8902;-60
2023/01/21 06:45:11;;;;;;;;;7.80;6.80;;;;;-3.17;82.18;101131.88;5095826;28;8846;-61
2023/01/21 06:47:39;;;;;;;;;4.20;4.20;;;;;-3.12;82.44;101137.91;5095994;28;8850;-60
2023/01/21 06:50:07;;;;;;;;;6.60;6.20;;;;;-3.06;82.41;101143.09;5095284;28;8826;-58
2023/01/21 06:52:34;;;;;;;;;7.00;5.60;;;;;-2.98;82.25;101138.69;5096098;28;8853;-61
2023/01/21 06:55:02;;;;;;;;;8.20;5.60;;;;;-2.94;82.06;101132.59;5095267;28;8884;-60
2023/01/21 06:57:30;;;;;;;;;7.00;6.60;;;;;-2.90;81.98;101145.59;5095368;28;8829;-60
2023/01/21 06:59:58;;;;;;;;;4.20;3.20;;;;;-2.86;81.78;101141.25;5095266;28;8895;-61
2023/01/21 07:02:26;;;;;;;;;7.00;6.60;;;;;-2.80;82.27;101146.41;5096209;28;8906;-61
2023/01/21 07:04:55;;;;;;;;;8.60;6.60;;;;;-2.73;82.11;101148.94;5096094;28;8833;-60
2023/01/21 07:07:25;;;;;;;;;4.40;3.20;;;;;-2.66;81.73;101149.78;5096141;28;8956;-59
2023/01/21 07:09:53;;;;;;;;;3.00;3.00;;;;;-2.61;81.90;101156.69;5096605;28;8865;-60
2023/01/21 07:12:20;;;;;;;;;10.00;10.00;;;;;-2.54;81.86;101162.72;5096064;28;8822;-61
2023/01/21 07:14:48;;;;;;;;;5.20;4.00;;;;;-2.50;81.87;101162.69;5096279;28;8822;-60
2023/01/21 07:17:16;;;;;;;;;6.00;6.00;;;;;-2.46;82.03;101159.19;5096167;28;8818;-61
2023/01/21 07:19:44;;;;;;;;;7.80;7.80;;;;;-2.43;81.61;101159.16;5109748;28;8808;-61
2023/01/21 07:22:12;;;;;;;;;7.00;7.00;;;;;-2.40;81.75;101163.47;5116805;28;8876;-59
2023/01/21 07:24:39;;;;;;;;;3.00;1.80;;;;;-2.35;81.57;101172.13;5099845;28;9531;-61
2023/01/21 07:27:08;;;;;;;;;11.00;11.00;;;;;-2.31;81.46;101168.63;5095980;28;9619;-61
2023/01/21 07:29:35;;;;;;;;;6.40;6.40;;;;;-2.30;80.99;101170.34;5095449;28;8806;-61
2023/01/21 07:32:03;;;;;;;;;9.00;7.00;;;;;-2.27;81.66;101168.56;5094271;28;8822;-61
2023/01/21 07:34:31;;;;;;;;;8.20;7.40;;;;;-2.26;80.92;101172.06;5094973;28;8858;-60
2023/01/21 07:36:59;;;;;;;;;5.60;5.60;;;;;-2.23;81.50;101165.06;5095424;28;8852;-61
2023/01/21 07:39:27;;;;;;;;;9.40;6.80;;;;;-2.18;81.62;101178.06;5095164;28;8976;-59
2023/01/21 07:41:55;;;;;;;;;3.60;3.20;;;;;-2.14;81.55;101185.00;5095117;28;8838;-59
2023/01/21 07:44:23;;;;;;;;;9.00;9.00;;;;;-2.09;81.02;101180.59;5094787;28;8818;-60
2023/01/21 07:46:50;;;;;;;;;5.40;4.60;;;;;-2.06;81.32;101183.19;5095266;28;9283;-61
2023/01/21 07:49:18;;;;;;;;;6.40;6.00;;;;;-2.02;81.20;101177.94;5094285;28;8830;-60
2023/01/21 07:51:46;;;;;;;;;8.20;7.00;;;;;-1.98;81.46;101184.84;5094318;28;9000;-60
2023/01/21 07:54:14;;;;;;;;;6.00;6.00;;;;;-1.94;81.43;101180.44;5092831;28;8818;-61
2023/01/21 07:56:41;;;;;;;;;9.80;7.80;;;;;-1.92;80.95;101186.50;5093540;28;9891;-60
2023/01/21 07:59:09;;;;;;;;;9.00;6.60;;;;;-1.88;81.11;101196.06;5094127;28;9514;-60
2023/01/21 08:01:37;;;;;;;;;6.00;5.00;;;;;-1.84;80.89;101193.41;5094016;28;8842;-60
2023/01/21 08:04:08;;;;;;;;;6.00;6.00;;;;;-1.79;81.08;101203.78;5090730;28;8810;-60
2023/01/21 08:06:40;;;;;;;;;4.80;4.80;;;;;-1.75;81.17;101200.28;5073792;28;8852;-60
2023/01/21 08:09:07;;;;;;;;;6.60;6.00;;;;;-1.72;81.08;101214.16;5073235;28;8987;-60
2023/01/21 08:11:35;;;;;;;;;8.20;7.40;;;;;-1.68;81.42;101213.25;5073654;28;9536;-58
2023/01/21 08:14:04;;;;;;;;;10.80;9.40;;;;;-1.64;80.53;101214.06;5078268;28;8812;-60
2023/01/21 08:16:32;;;;;;;;;6.20;6.20;;;;;-1.60;81.09;101213.19;5074957;28;8840;-59
2023/01/21 08:19:00;;;;;;;;;8.60;8.60;;;;;-1.58;80.43;101214.03;5089593;28;8840;-60
2023/01/21 08:21:27;;;;;;;;;9.40;9.00;;;;;-1.56;80.92;101215.75;5113438;28;8856;-60
2023/01/21 08:23:55;;;;;;;;;4.00;3.40;;;;;-1.52;80.92;101213.97;5094813;28;8970;-58
2023/01/21 08:26:25;;;;;;;;;6.60;6.60;;;;;-1.48;80.86;101213.03;5094214;28;8932;-59
2023/01/21 08:28:53;;;;;;;;;12.00;10.40;;;;;-1.44;81.02;101222.56;5094094;28;8842;-58
2023/01/21 08:31:21;;;;;;;;;7.60;7.20;;;;;-1.40;80.80;101222.53;5093699;28;8821;-61
2023/01/21 08:33:48;;;;;;;;;10.20;9.40;;;;;-1.36;80.60;101225.97;5094443;28;8826;-61
2023/01/21 08:36:16;;;;;;;;;11.20;11.20;;;;;-1.29;80.76;101227.63;5094492;28;8810;-59
2023/01/21 08:38:44;;;;;;;;;14.20;13.80;;;;;-1.23;81.16;101231.03;5094576;28;8920;-58
2023/01/21 08:41:15;;;;;;;;;7.80;6.40;;;;;-1.13;80.70;101243.09;5094451;28;8826;-60
2023/01/21 08:43:43;;;;;;;;;6.40;6.40;;;;;-1.05;80.70;101235.16;5094409;28;8830;-58
2023/01/21 08:46:10;;;;;;;;;11.00;9.80;;;;;-0.97;80.30;101241.16;5094413;28;8822;-58
2023/01/21 08:48:39;;;;;;;;;10.00;10.00;;;;;-0.94;80.33;101233.28;5098645;28;8847;-59
2023/01/21 08:51:07;;;;;;;;;9.40;9.20;;;;;-0.88;80.11;101243.66;5113180;28;8828;-58
2023/01/21 08:53:35;;;;;;;;;12.60;12.00;;;;;-0.83;80.18;101244.47;5094244;28;8826;-60
2023/01/21 08:56:03;;;;;;;;;13.20;10.00;;;;;-0.78;80.34;101242.69;5093934;28;9565;-59
2023/01/21 08:58:31;;;;;;;;;8.20;7.40;;;;;-0.72;80.24;101234.72;5093580;28;8821;-61
2023/01/21 09:00:58;;;;;;;;;12.20;10.20;;;;;-0.65;80.26;101246.84;5093574;28;8854;-60
2023/01/21 09:03:28;;;;;;;;;12.40;11.20;;;;;-0.59;80.24;101241.53;5093704;28;8850;-60
2023/01/21 09:05:56;;;;;;;;;12.60;12.60;;;;;-0.53;80.36;101241.44;5094109;28;8826;-58
2023/01/21 09:08:24;;;;;;;;;6.00;4.00;;;;;-0.47;80.17;101242.22;5093145;28;8838;-59
2023/01/21 09:11:02;;;;;;;;;9.60;9.60;;;;;-0.40;80.29;101241.25;5092808;28;8845;-59
2023/01/21 09:13:30;;;;;;;;;6.40;6.40;;;;;-0.32;79.43;101243.75;5072873;28;8840;-58
2023/01/21 09:15:58;;;;;;;;;11.60;9.20;;;;;-0.27;79.43;101250.66;5072951;28;8856;-58
2023/01/21 09:18:25;;;;;;;;;11.00;9.40;;;;;-0.22;79.73;101247.97;5077420;28;8838;-60
2023/01/21 09:20:53;;;;;;;;;13.40;13.40;;;;;-0.16;79.88;101250.50;5113087;28;8940;-61
2023/01/21 09:23:27;;;;;;;;;12.20;11.60;;;;;-0.09;80.15;101257.34;5095678;28;8822;-59
2023/01/21 09:25:55;;;;;;;;;9.80;9.60;;;;;-0.03;79.52;101249.41;5094558;28;9928;-60
2023/01/21 09:28:23;;;;;;;;;6.00;5.60;;;;;0.01;79.64;101255.41;5094321;28;8818;-60
2023/01/21 09:30:51;;;;;;;;;6.40;6.20;;;;;0.04;79.55;101257.13;5094412;28;8834;-60
2023/01/21 09:33:19;;;;;;;;;14.20;11.20;;;;;0.07;79.54;101265.78;5094578;28;8842;-59
2023/01/21 09:35:47;;;;;;;;;7.00;4.80;;;;;0.11;79.87;101270.09;5094414;28;8840;-60
2023/01/21 09:38:15;;;;;;;;;14.00;13.00;;;;;0.12;79.43;101266.59;5093984;28;8861;-60
2023/01/21 09:40:44;;;;;;;;;15.60;13.00;;;;;0.14;79.60;101277.91;5094147;28;8834;-58
2023/01/21 09:43:12;;;;;;;;;12.40;10.20;;;;;0.17;79.42;101275.22;5095456;28;9534;-61
2023/01/21 09:45:40;;;;;;;;;11.20;9.80;;;;;0.19;79.17;101270.84;5095908;28;8835;-59
2023/01/21 09:48:08;;;;;;;;;13.40;13.00;;;;;0.22;80.05;101273.41;5096175;28;8818;-61
2023/01/21 09:50:36;;;;;;;;;7.40;7.40;;;;;0.25;79.63;101280.34;5116451;28;8848;-60
2023/01/21 09:53:04;;;;;;;;;13.40;11.60;;;;;0.29;79.44;101282.00;5116288;28;8836;-61
2023/01/21 09:55:32;;;;;;;;;9.20;9.20;;;;;0.33;79.25;101281.94;5098319;28;9602;-59
2023/01/21 09:58:00;;;;;;;;;12.80;10.40;;;;;0.36;79.40;101274.03;5096067;28;8833;-59
2023/01/21 10:00:28;;;;;;;;;11.40;10.80;;;;;0.39;79.38;101275.75;5096074;28;8869;-59
2023/01/21 10:02:56;;;;;;;;;12.60;11.60;;;;;0.43;79.83;101277.41;5095952;28;9503;-58
2023/01/21 10:05:24;;;;;;;;;10.00;10.00;;;;;0.47;79.13;101289.56;5095440;28;8836;-60
2023/01/21 10:07:52;;;;;;;;;9.20;7.40;;;;;0.49;79.25;101288.66;5095367;28;8830;-58
2023/01/21 10:10:20;;;;;;;;;10.00;8.60;;;;;0.53;79.48;101292.09;5095201;28;8920;-61
2023/01/21 10:12:48;;;;;;;;;17.00;15.60;;;;;0.55;79.54;101291.16;5095587;28;9503;-59
2023/01/21 10:15:16;;;;;;;;;8.80;8.80;;;;;0.60;79.34;101286.69;5095735;28;9519;-59
2023/01/21 10:17:46;;;;;;;;;11.80;11.80;;;;;0.68;79.17;101289.19;5094870;28;8884;-58
2023/01/21 10:20:14;;;;;;;;;15.20;13.60;;;;;0.81;78.85;101286.31;5109192;28;8830;-58
2023/01/21 10:22:42;;;;;;;;;13.00;13.00;;;;;0.94;78.89;101286.94;5095120;28;8838;-59
2023/01/21 10:25:09;;;;;;;;;9.60;7.40;;;;;1.05;78.73;101285.84;5094315;28;8829;-58
2023/01/21 10:27:37;;;;;;;;;15.20;13.40;;;;;1.16;78.39;101283.00;5093917;28;9578;-60
2023/01/21 10:30:05;;;;;;;;;16.00;15.40;;;;;1.26;78.40;101292.41;5093635;28;8842;-59
2023/01/21 10:32:34;;;;;;;;;14.40;9.60;;;;;1.31;79.07;101288.78;5093937;28;8818;-61
2023/01/21 10:35:02;;;;;;;;;9.80;8.60;;;;;1.35;78.92;101287.84;5093420;28;8833;-60
2023/01/21 10:37:30;;;;;;;;;13.60;12.20;;;;;1.40;78.21;101293.00;5093715;28;8836;-61
2023/01/21 10:40:00;;;;;;;;;12.40;12.00;;;;;1.42;78.61;101291.19;5094363;28;8822;-60
2023/01/21 10:42:28;;;;;;;;;11.00;9.60;;;;;1.45;78.44;101285.91;5094349;28;8838;-60
2023/01/21 10:44:56;;;;;;;;;12.60;10.80;;;;;1.51;78.31;101288.41;5093887;28;8875;-58
2023/01/21 10:47:24;;;;;;;;;12.60;12.60;;;;;1.58;78.44;101287.34;5094103;28;8865;-60
2023/01/21 10:49:52;;;;;;;;;15.80;11.20;;;;;1.65;78.14;101294.19;5104708;28;8960;-59
2023/01/21 10:52:21;;;;;;;;;13.00;10.40;;;;;1.68;78.02;101297.59;5093595;28;8834;-60
2023/01/21 10:54:50;;;;;;;;;9.00;7.00;;;;;1.70;77.94;101287.06;5093500;28;8853;-59
2023/01/21 10:57:18;;;;;;;;;13.00;12.00;;;;;1.70;77.82;101292.31;5093525;28;8845;-58
2023/01/21 10:59:46;;;;;;;;;16.40;15.40;;;;;1.70;78.30;101295.84;5094020;28;8968;-60
2023/01/21 11:02:14;;;;;;;;;14.00;13.00;;;;;1.72;78.00;101290.53;5093211;28;8830;-58
2023/01/21 11:04:43;;;;;;;;;11.00;10.60;;;;;1.74;78.65;101294.00;5092822;28;8833;-60
2023/01/21 11:07:11;;;;;;;;;9.80;7.00;;;;;1.76;78.20;101293.03;5091598;28;8861;-58
2023/01/21 11:09:39;;;;;;;;;12.60;12.00;;;;;1.75;78.37;101293.09;5091653;28;8860;-57
2023/01/21 11:12:07;;;;;;;;;16.80;16.60;;;;;1.73;78.23;101293.13;5092124;28;9815;-58
2023/01/21 11:14:35;;;;;;;;;15.00;13.80;;;;;1.73;78.28;101293.13;5091270;28;8964;-58
2023/01/21 11:17:03;;;;;;;;;13.20;12.40;;;;;1.74;78.42;101291.38;5091238;28;8956;-57
2023/01/21 11:19:32;;;;;;;;;17.60;14.80;;;;;1.75;78.43;101287.84;5103589;28;8835;-59
2023/01/21 11:22:00;;;;;;;;;15.40;15.00;;;;;1.77;78.54;101289.53;5112452;28;8854;-61
2023/01/21 11:24:28;;;;;;;;;11.20;10.00;;;;;1.79;78.91;101286.88;5112832;28;9818;-58
2023/01/21 11:26:56;;;;;;;;;9.00;8.60;;;;;1.76;78.37;101285.16;5092706;28;9582;-59
2023/01/21 11:29:24;;;;;;;;;11.60;9.60;;;;;1.73;78.20;101292.25;5092455;28;8876;-61
2023/01/21 11:31:52;;;;;;;;;11.60;10.60;;;;;1.69;78.51;101287.97;5091647;28;8826;-59
2023/01/21 11:34:20;;;;;;;;;19.20;17.20;;;;;1.67;78.91;101297.66;5092305;28;8842;-58
2023/01/21 11:36:48;;;;;;;;;9.40;8.20;;;;;1.68;79.08;101292.34;5092397;28;8857;-60